Atlas — SV6729 — position and weather

sailwx.info

Track history (hours):
 
Tides and Currents Weather Stations Pressure Air Temp Water Temp Dewpoint Dewpoint Depression Visibility Wind Speed Wind Dir Waves Ship Positions

Atlas

Last reported at 2016-May-24 07:33 UTC. Time now 2016-May-24 08:04 UTC.
Position N 37°57' E 023°37'.

Length 29 m; draft 5 m.

Type: Tug. MMSI: 239611000.

Date/timePositionNaut miles runAvg speedWind from/ knotsBaromVisibWave heightAir tempDewpointWater temp
2016-May-24 07:33N 37°57' E 023°37'0 0.0
2016-May-24 06:29N 37°57' E 023°37'0 0.0
2016-May-24 05:32N 37°57' E 023°37'1 0.5
2016-May-24 04:28N 37°57' E 023°36'1 0.6
2016-May-24 03:33N 37°57' E 023°37'0 0.0
2016-May-23 16:32N 37°57' E 023°37'0 0.0
2016-May-23 15:28N 37°57' E 023°37'0 0.0
2016-May-23 14:32N 37°57' E 023°37'1 0.7
2016-May-23 13:33N 37°57' E 023°36'1 0.7
2016-May-23 12:33N 37°57' E 023°35'0 0.1
2016-May-23 11:34N 37°57' E 023°35'1 1.0
2016-May-23 10:32N 37°57' E 023°36'0 0.4
2016-May-23 09:34N 37°58' E 023°36'0 0.0
2016-May-23 08:33N 37°58' E 023°36'0 0.2
2016-May-23 07:32N 37°57' E 023°36'0 0.1
2016-May-23 06:31N 37°57' E 023°37'0 0.0
2016-May-23 05:29N 37°57' E 023°37'1 0.6
2016-May-23 04:28N 37°57' E 023°36'1 0.7
2016-May-23 03:33N 37°57' E 023°37'  
2016-May-20 10:32N 37°57' E 023°37'0 0.0
2016-May-20 09:33N 37°57' E 023°37'1 0.9
2016-May-20 08:33N 37°57' E 023°36'1 0.9
2016-May-20 07:32N 37°57' E 023°37'0 0.0
2016-May-20 06:33N 37°57' E 023°37'0 0.2
2016-May-20 04:29N 37°57' E 023°36'0 0.4
2016-May-20 03:32N 37°57' E 023°37'0 0.0
2016-May-19 11:32N 37°57' E 023°37'1 0.5
2016-May-19 10:33N 37°57' E 023°36'1 0.9
2016-May-19 09:33N 37°57' E 023°35'1 1.0
2016-May-19 08:33N 37°57' E 023°36'1 0.5
2016-May-19 07:27N 37°57' E 023°37'2 1.8
2016-May-19 06:34N 37°57' E 023°35'2 1.6
2016-May-19 05:32N 37°57' E 023°37'0 0.3
2016-May-19 04:32N 37°58' E 023°36'0 0.2
2016-May-19 03:32N 37°57' E 023°37'0 0.0
2016-May-18 11:31N 37°57' E 023°37'0 0.0
2016-May-18 10:33N 37°57' E 023°37'1 0.9
2016-May-18 09:31N 37°57' E 023°35'0 0.4
2016-May-18 08:32N 37°57' E 023°36'1 0.6
2016-May-18 07:33N 37°57' E 023°36'1 0.6
2016-May-18 06:32N 37°57' E 023°37'0 0.0
2016-May-18 05:28N 37°57' E 023°37'0 0.5
2016-May-18 04:30N 37°57' E 023°36'0 0.5
2016-May-18 03:30N 37°57' E 023°37'0 0.0
2016-May-17 12:27N 37°57' E 023°37'0 0.0
2016-May-17 11:32N 37°57' E 023°37'0 0.4
2016-May-17 10:32N 37°57' E 023°36'0 0.4
2016-May-17 09:33N 37°57' E 023°37'0 0.0
2016-May-17 08:26N 37°57' E 023°37'0 0.0
2016-May-17 07:31N 37°57' E 023°37'0 0.0
2016-May-17 06:32N 37°57' E 023°37'0 0.0
2016-May-17 05:26N 37°57' E 023°37'1 1.6
2016-May-17 04:30N 37°57' E 023°35'1 1.5
2016-May-17 03:33N 37°57' E 023°37'3 0.2
2016-May-16 12:33N 37°58' E 023°33'4 3.5
2016-May-16 11:32N 38°01' E 023°30'0 0.1
2016-May-16 10:28N 38°01' E 023°30'0 0.0
2016-May-16 09:31N 38°01' E 023°30'0 0.0
2016-May-16 08:33N 38°01' E 023°30'4 4.2
2016-May-16 07:31N 38°01' E 023°36'3 2.5
2016-May-16 06:28N 38°02' E 023°32'3 2.9
2016-May-16 05:33N 38°01' E 023°35'0 0.0
2016-May-16 04:28N 38°01' E 023°35'0 0.0
2016-May-16 03:32N 38°01' E 023°35'0 0.0
2016-May-16 02:27N 38°01' E 023°35'0 0.0
2016-May-16 01:32N 38°01' E 023°35'0 0.0
2016-May-16 00:33N 38°01' E 023°35'0 0.0
2016-May-15 23:33N 38°01' E 023°35'0 0.0
2016-May-15 22:33N 38°01' E 023°35'0 0.0
2016-May-15 21:32N 38°01' E 023°35'0 0.0
2016-May-15 20:33N 38°01' E 023°35'0 0.0
2016-May-15 19:32N 38°01' E 023°35'0 0.0
2016-May-15 18:32N 38°01' E 023°35'0 0.0
2016-May-15 17:33N 38°01' E 023°35'0 0.0
2016-May-15 16:32N 38°01' E 023°36'0 0.0
2016-May-15 15:33N 38°01' E 023°36'0 0.0
2016-May-15 14:31N 38°01' E 023°36'0 0.0
2016-May-15 13:32N 38°01' E 023°36'0 0.0
2016-May-15 12:28N 38°01' E 023°36'0 0.0
2016-May-15 11:32N 38°01' E 023°36'0 0.0
2016-May-15 10:23N 38°01' E 023°36'0 0.0
2016-May-15 09:31N 38°01' E 023°36'0 0.0
2016-May-15 08:27N 38°01' E 023°36'0 0.0
2016-May-15 07:30N 38°01' E 023°36'0 0.0
2016-May-15 06:29N 38°01' E 023°36'0 0.0
2016-May-15 05:33N 38°01' E 023°36'0 0.0
2016-May-15 04:33N 38°01' E 023°36'0 0.0
2016-May-15 03:31N 38°01' E 023°36'0 0.0
2016-May-15 02:32N 38°01' E 023°36'0 0.0
2016-May-15 01:30N 38°01' E 023°36'0 0.0
2016-May-15 00:33N 38°01' E 023°36'0 0.0
2016-May-14 23:30N 38°01' E 023°36'0 0.0
2016-May-14 22:32N 38°01' E 023°36'0 0.0
2016-May-14 21:32N 38°01' E 023°36'0 0.0
2016-May-14 20:31N 38°01' E 023°36'0 0.0
2016-May-14 19:32N 38°01' E 023°36'0 0.0
2016-May-14 18:31N 38°01' E 023°36'0 0.0
2016-May-14 17:29N 38°01' E 023°36'0 0.0
2016-May-14 16:32N 38°01' E 023°36'0 0.0
2016-May-14 15:32N 38°01' E 023°36'0 0.0
2016-May-14 14:24N 38°01' E 023°36'0 0.0
2016-May-14 13:31N 38°01' E 023°36'0 0.0
2016-May-14 12:28N 38°01' E 023°36'0 0.0
2016-May-14 11:32N 38°01' E 023°36'0 0.0
2016-May-14 10:19N 38°01' E 023°36'0 0.0
2016-May-14 09:30N 38°01' E 023°36'0 0.0
2016-May-14 08:33N 38°01' E 023°36'  
Track history (hours):
 
Tides and Currents Weather Stations Pressure Air Temp Water Temp Dewpoint Dewpoint Depression Visibility Wind Speed Wind Dir Waves Ship Positions

Atlas

Last reported at 2016-May-24 07:33 UTC. Time now 2016-May-24 08:04 UTC.
Position N 37°57' E 023°37'.

Length 29 m; draft 5 m.

Type: Tug. MMSI: 239611000.

Date/timePositionNaut miles runAvg speedWind from/ knotsBaromVisibWave heightAir tempDewpointWater temp
2016-May-24 07:33N 37°57' E 023°37'0 0.0
2016-May-24 06:29N 37°57' E 023°37'0 0.0
2016-May-24 05:32N 37°57' E 023°37'1 0.5
2016-May-24 04:28N 37°57' E 023°36'1 0.6
2016-May-24 03:33N 37°57' E 023°37'0 0.0
2016-May-23 16:32N 37°57' E 023°37'0 0.0
2016-May-23 15:28N 37°57' E 023°37'0 0.0
2016-May-23 14:32N 37°57' E 023°37'1 0.7
2016-May-23 13:33N 37°57' E 023°36'1 0.7
2016-May-23 12:33N 37°57' E 023°35'0 0.1
2016-May-23 11:34N 37°57' E 023°35'1 1.0
2016-May-23 10:32N 37°57' E 023°36'0 0.4
2016-May-23 09:34N 37°58' E 023°36'0 0.0
2016-May-23 08:33N 37°58' E 023°36'0 0.2
2016-May-23 07:32N 37°57' E 023°36'0 0.1
2016-May-23 06:31N 37°57' E 023°37'0 0.0
2016-May-23 05:29N 37°57' E 023°37'1 0.6
2016-May-23 04:28N 37°57' E 023°36'1 0.7
2016-May-23 03:33N 37°57' E 023°37'  
2016-May-20 10:32N 37°57' E 023°37'0 0.0
2016-May-20 09:33N 37°57' E 023°37'1 0.9
2016-May-20 08:33N 37°57' E 023°36'1 0.9
2016-May-20 07:32N 37°57' E 023°37'0 0.0
2016-May-20 06:33N 37°57' E 023°37'0 0.2
2016-May-20 04:29N 37°57' E 023°36'0 0.4
2016-May-20 03:32N 37°57' E 023°37'0 0.0
2016-May-19 11:32N 37°57' E 023°37'1 0.5
2016-May-19 10:33N 37°57' E 023°36'1 0.9
2016-May-19 09:33N 37°57' E 023°35'1 1.0
2016-May-19 08:33N 37°57' E 023°36'1 0.5
2016-May-19 07:27N 37°57' E 023°37'2 1.8
2016-May-19 06:34N 37°57' E 023°35'2 1.6
2016-May-19 05:32N 37°57' E 023°37'0 0.3
2016-May-19 04:32N 37°58' E 023°36'0 0.2
2016-May-19 03:32N 37°57' E 023°37'0 0.0
2016-May-18 11:31N 37°57' E 023°37'0 0.0
2016-May-18 10:33N 37°57' E 023°37'1 0.9
2016-May-18 09:31N 37°57' E 023°35'0 0.4
2016-May-18 08:32N 37°57' E 023°36'1 0.6
2016-May-18 07:33N 37°57' E 023°36'1 0.6
2016-May-18 06:32N 37°57' E 023°37'0 0.0
2016-May-18 05:28N 37°57' E 023°37'0 0.5
2016-May-18 04:30N 37°57' E 023°36'0 0.5
2016-May-18 03:30N 37°57' E 023°37'0 0.0
2016-May-17 12:27N 37°57' E 023°37'0 0.0
2016-May-17 11:32N 37°57' E 023°37'0 0.4
2016-May-17 10:32N 37°57' E 023°36'0 0.4
2016-May-17 09:33N 37°57' E 023°37'0 0.0
2016-May-17 08:26N 37°57' E 023°37'0 0.0
2016-May-17 07:31N 37°57' E 023°37'0 0.0
2016-May-17 06:32N 37°57' E 023°37'0 0.0
2016-May-17 05:26N 37°57' E 023°37'1 1.6
2016-May-17 04:30N 37°57' E 023°35'1 1.5
2016-May-17 03:33N 37°57' E 023°37'3 0.2
2016-May-16 12:33N 37°58' E 023°33'4 3.5
2016-May-16 11:32N 38°01' E 023°30'0 0.1
2016-May-16 10:28N 38°01' E 023°30'0 0.0
2016-May-16 09:31N 38°01' E 023°30'0 0.0
2016-May-16 08:33N 38°01' E 023°30'4 4.2
2016-May-16 07:31N 38°01' E 023°36'3 2.5
2016-May-16 06:28N 38°02' E 023°32'3 2.9
2016-May-16 05:33N 38°01' E 023°35'0 0.0
2016-May-16 04:28N 38°01' E 023°35'0 0.0
2016-May-16 03:32N 38°01' E 023°35'0 0.0
2016-May-16 02:27N 38°01' E 023°35'0 0.0
2016-May-16 01:32N 38°01' E 023°35'0 0.0
2016-May-16 00:33N 38°01' E 023°35'0 0.0
2016-May-15 23:33N 38°01' E 023°35'0 0.0
2016-May-15 22:33N 38°01' E 023°35'0 0.0
2016-May-15 21:32N 38°01' E 023°35'0 0.0
2016-May-15 20:33N 38°01' E 023°35'0 0.0
2016-May-15 19:32N 38°01' E 023°35'0 0.0
2016-May-15 18:32N 38°01' E 023°35'0 0.0
2016-May-15 17:33N 38°01' E 023°35'0 0.0
2016-May-15 16:32N 38°01' E 023°36'0 0.0
2016-May-15 15:33N 38°01' E 023°36'0 0.0
2016-May-15 14:31N 38°01' E 023°36'0 0.0
2016-May-15 13:32N 38°01' E 023°36'0 0.0
2016-May-15 12:28N 38°01' E 023°36'0 0.0
2016-May-15 11:32N 38°01' E 023°36'0 0.0
2016-May-15 10:23N 38°01' E 023°36'0 0.0
2016-May-15 09:31N 38°01' E 023°36'0 0.0
2016-May-15 08:27N 38°01' E 023°36'0 0.0
2016-May-15 07:30N 38°01' E 023°36'0 0.0
2016-May-15 06:29N 38°01' E 023°36'0 0.0
2016-May-15 05:33N 38°01' E 023°36'0 0.0
2016-May-15 04:33N 38°01' E 023°36'0 0.0
2016-May-15 03:31N 38°01' E 023°36'0 0.0
2016-May-15 02:32N 38°01' E 023°36'0 0.0
2016-May-15 01:30N 38°01' E 023°36'0 0.0
2016-May-15 00:33N 38°01' E 023°36'0 0.0
2016-May-14 23:30N 38°01' E 023°36'0 0.0
2016-May-14 22:32N 38°01' E 023°36'0 0.0
2016-May-14 21:32N 38°01' E 023°36'0 0.0
2016-May-14 20:31N 38°01' E 023°36'0 0.0
2016-May-14 19:32N 38°01' E 023°36'0 0.0
2016-May-14 18:31N 38°01' E 023°36'0 0.0
2016-May-14 17:29N 38°01' E 023°36'0 0.0
2016-May-14 16:32N 38°01' E 023°36'0 0.0
2016-May-14 15:32N 38°01' E 023°36'0 0.0
2016-May-14 14:24N 38°01' E 023°36'0 0.0
2016-May-14 13:31N 38°01' E 023°36'0 0.0
2016-May-14 12:28N 38°01' E 023°36'0 0.0
2016-May-14 11:32N 38°01' E 023°36'0 0.0
2016-May-14 10:19N 38°01' E 023°36'0 0.0
2016-May-14 09:30N 38°01' E 023°36'0 0.0
2016-May-14 08:33N 38°01' E 023°36'  

Dump ship's entire track history